sensor_id;sensor_type;location;lat;lon;timestamp;pressure;altitude;pressure_sealevel;temperature;humidity
38054;BME280;23859;50.672;7.164;2023-03-19T00:00:18;96517.50;;;12.64;85.16
38054;BME280;23859;50.672;7.164;2023-03-19T00:02:44;96501.16;;;12.82;83.90
38054;BME280;23859;50.672;7.164;2023-03-19T00:05:16;96498.75;;;12.80;84.19
38054;BME280;23859;50.672;7.164;2023-03-19T00:07:42;96510.19;;;13.02;82.07
38054;BME280;23859;50.672;7.164;2023-03-19T00:10:09;96508.28;;;12.98;83.05
38054;BME280;23859;50.672;7.164;2023-03-19T00:12:35;96496.09;;;12.80;82.79
38054;BME280;23859;50.672;7.164;2023-03-19T00:15:02;96503.69;;;12.88;82.86
38054;BME280;23859;50.672;7.164;2023-03-19T00:17:28;96504.47;;;12.89;82.33
38054;BME280;23859;50.672;7.164;2023-03-19T00:19:54;96501.25;;;12.87;83.36
38054;BME280;23859;50.672;7.164;2023-03-19T00:22:20;96503.78;;;12.77;85.31
38054;BME280;23859;50.672;7.164;2023-03-19T00:24:47;96504.59;;;12.77;84.67
38054;BME280;23859;50.672;7.164;2023-03-19T00:27:13;96496.78;;;12.71;85.67
38054;BME280;23859;50.672;7.164;2023-03-19T00:29:39;96506.91;;;12.69;86.46
38054;BME280;23859;50.672;7.164;2023-03-19T00:32:06;96497.63;;;12.50;87.92
38054;BME280;23859;50.672;7.164;2023-03-19T00:34:33;96496.78;;;12.45;88.19
38054;BME280;23859;50.672;7.164;2023-03-19T00:36:59;96492.41;;;12.34;89.10
38054;BME280;23859;50.672;7.164;2023-03-19T00:39:25;96500.59;;;12.27;90.19
38054;BME280;23859;50.672;7.164;2023-03-19T00:41:51;96500.22;;;12.19;90.63
38054;BME280;23859;50.672;7.164;2023-03-19T00:44:18;96490.22;;;12.09;91.05
38054;BME280;23859;50.672;7.164;2023-03-19T00:46:44;96505.28;;;12.20;90.64
38054;BME280;23859;50.672;7.164;2023-03-19T00:49:11;96497.78;;;12.17;90.43
38054;BME280;23859;50.672;7.164;2023-03-19T00:51:37;96501.97;;;12.13;90.93
38054;BME280;23859;50.672;7.164;2023-03-19T00:54:09;96493.53;;;12.16;90.83
38054;BME280;23859;50.672;7.164;2023-03-19T00:56:36;96494.25;;;12.12;91.52
38054;BME280;23859;50.672;7.164;2023-03-19T00:59:02;96499.53;;;12.07;91.39
38054;BME280;23859;50.672;7.164;2023-03-19T01:01:28;96497.22;;;12.15;90.80
38054;BME280;23859;50.672;7.164;2023-03-19T01:03:54;96480.16;;;12.11;90.35
38054;BME280;23859;50.672;7.164;2023-03-19T01:06:20;96493.53;;;12.16;90.90
38054;BME280;23859;50.672;7.164;2023-03-19T01:08:46;96493.28;;;12.18;90.37
38054;BME280;23859;50.672;7.164;2023-03-19T01:11:14;96502.88;;;12.19;90.05
38054;BME280;23859;50.672;7.164;2023-03-19T01:13:42;96503.03;;;12.12;90.48
38054;BME280;23859;50.672;7.164;2023-03-19T01:16:08;96508.94;;;12.14;90.09
38054;BME280;23859;50.672;7.164;2023-03-19T01:18:35;96503.41;;;12.21;89.92
38054;BME280;23859;50.672;7.164;2023-03-19T01:21:01;96494.50;;;12.10;90.59
38054;BME280;23859;50.672;7.164;2023-03-19T01:23:30;96515.66;;;12.00;92.09
38054;BME280;23859;50.672;7.164;2023-03-19T01:25:56;96510.81;;;11.97;92.44
38054;BME280;23859;50.672;7.164;2023-03-19T01:28:22;96515.66;;;12.00;91.93
38054;BME280;23859;50.672;7.164;2023-03-19T01:30:49;96518.56;;;11.99;91.50
38054;BME280;23859;50.672;7.164;2023-03-19T01:33:15;96521.28;;;12.04;91.65
38054;BME280;23859;50.672;7.164;2023-03-19T01:35:45;96519.31;;;12.16;90.66
38054;BME280;23859;50.672;7.164;2023-03-19T01:38:12;96512.69;;;11.97;91.70
38054;BME280;23859;50.672;7.164;2023-03-19T01:40:44;96510.63;;;12.04;91.43
38054;BME280;23859;50.672;7.164;2023-03-19T01:43:27;96511.81;;;11.92;92.24
38054;BME280;23859;50.672;7.164;2023-03-19T01:48:36;96506.69;;;11.85;92.79
38054;BME280;23859;50.672;7.164;2023-03-19T01:51:04;96508.28;;;11.86;92.53
38054;BME280;23859;50.672;7.164;2023-03-19T01:53:33;96503.25;;;11.68;93.83
38054;BME280;23859;50.672;7.164;2023-03-19T01:56:13;96512.59;;;11.71;94.05
38054;BME280;23859;50.672;7.164;2023-03-19T01:58:42;96510.25;;;11.74;93.75
38054;BME280;23859;50.672;7.164;2023-03-19T02:01:08;96500.41;;;11.75;93.96
38054;BME280;23859;50.672;7.164;2023-03-19T02:03:37;96501.22;;;11.59;94.40
38054;BME280;23859;50.672;7.164;2023-03-19T02:06:04;96506.38;;;11.49;95.66
38054;BME280;23859;50.672;7.164;2023-03-19T02:08:32;96504.84;;;11.53;95.15
38054;BME280;23859;50.672;7.164;2023-03-19T02:10:59;96424.13;;;10.88;95.61
38054;BME280;23859;50.672;7.164;2023-03-19T02:13:26;96507.78;;;11.51;95.62
38054;BME280;23859;50.672;7.164;2023-03-19T02:15:53;96514.34;;;11.49;95.79
38054;BME280;23859;50.672;7.164;2023-03-19T02:18:20;96517.34;;;11.36;96.07
38054;BME280;23859;50.672;7.164;2023-03-19T02:20:57;96508.47;;;11.30;96.50
38054;BME280;23859;50.672;7.164;2023-03-19T02:26:22;96520.41;;;11.28;97.17
38054;BME280;23859;50.672;7.164;2023-03-19T02:28:50;96507.69;;;11.30;95.94
38054;BME280;23859;50.672;7.164;2023-03-19T02:31:17;96509.44;;;11.25;96.57
38054;BME280;23859;50.672;7.164;2023-03-19T02:33:57;96509.13;;;11.21;97.03
38054;BME280;23859;50.672;7.164;2023-03-19T02:36:24;96510.41;;;11.19;97.20
38054;BME280;23859;50.672;7.164;2023-03-19T02:38:53;96506.38;;;11.16;96.99
38054;BME280;23859;50.672;7.164;2023-03-19T02:41:22;96505.50;;;11.27;96.67
38054;BME280;23859;50.672;7.164;2023-03-19T02:43:49;96518.03;;;11.48;95.11
38054;BME280;23859;50.672;7.164;2023-03-19T02:46:16;96520.97;;;11.30;96.69
38054;BME280;23859;50.672;7.164;2023-03-19T02:48:42;96510.88;;;11.32;96.16
38054;BME280;23859;50.672;7.164;2023-03-19T02:51:08;96392.25;;;10.56;96.39
38054;BME280;23859;50.672;7.164;2023-03-19T02:53:34;96505.56;;;11.32;96.41
38054;BME280;23859;50.672;7.164;2023-03-19T02:56:01;96509.84;;;11.33;96.46
38054;BME280;23859;50.672;7.164;2023-03-19T02:58:27;96507.75;;;11.35;95.94
38054;BME280;23859;50.672;7.164;2023-03-19T03:00:53;96511.06;;;11.42;96.05
38054;BME280;23859;50.672;7.164;2023-03-19T03:03:19;96428.13;;;10.74;95.73
38054;BME280;23859;50.672;7.164;2023-03-19T03:05:45;96509.22;;;11.42;95.83
38054;BME280;23859;50.672;7.164;2023-03-19T03:08:11;96504.97;;;11.58;94.56
38054;BME280;23859;50.672;7.164;2023-03-19T03:10:37;96505.31;;;11.50;94.70
38054;BME280;23859;50.672;7.164;2023-03-19T03:13:04;96500.97;;;11.44;94.53
38054;BME280;23859;50.672;7.164;2023-03-19T03:15:30;96499.88;;;11.56;92.76
38054;BME280;23859;50.672;7.164;2023-03-19T03:17:56;96504.28;;;11.67;91.89
38054;BME280;23859;50.672;7.164;2023-03-19T03:20:22;96502.16;;;11.86;90.02
38054;BME280;23859;50.672;7.164;2023-03-19T03:22:49;96506.00;;;11.95;90.29
38054;BME280;23859;50.672;7.164;2023-03-19T03:25:15;96502.91;;;12.02;89.14
38054;BME280;23859;50.672;7.164;2023-03-19T03:27:41;96501.13;;;12.08;88.38
38054;BME280;23859;50.672;7.164;2023-03-19T03:30:09;96515.66;;;12.22;88.37
38054;BME280;23859;50.672;7.164;2023-03-19T03:32:36;96510.22;;;12.33;86.31
38054;BME280;23859;50.672;7.164;2023-03-19T03:35:04;96515.06;;;12.36;86.30
38054;BME280;23859;50.672;7.164;2023-03-19T03:37:30;96505.75;;;12.39;85.29
38054;BME280;23859;50.672;7.164;2023-03-19T03:39:56;96510.63;;;12.47;84.59
38054;BME280;23859;50.672;7.164;2023-03-19T03:42:22;96512.25;;;12.48;84.74
38054;BME280;23859;50.672;7.164;2023-03-19T03:44:49;96499.75;;;12.48;84.53
38054;BME280;23859;50.672;7.164;2023-03-19T03:47:15;96516.88;;;12.57;83.89
38054;BME280;23859;50.672;7.164;2023-03-19T03:49:42;96518.59;;;12.68;83.20
38054;BME280;23859;50.672;7.164;2023-03-19T03:52:09;96527.31;;;12.85;82.55
38054;BME280;23859;50.672;7.164;2023-03-19T03:54:35;96521.13;;;12.79;83.19
38054;BME280;23859;50.672;7.164;2023-03-19T03:57:01;96525.25;;;12.65;83.36
38054;BME280;23859;50.672;7.164;2023-03-19T03:59:27;96520.22;;;12.69;83.90
38054;BME280;23859;50.672;7.164;2023-03-19T04:01:53;96516.63;;;12.59;84.05
38054;BME280;23859;50.672;7.164;2023-03-19T04:04:19;96517.47;;;12.59;83.96
38054;BME280;23859;50.672;7.164;2023-03-19T04:06:46;96517.88;;;12.51;84.23
38054;BME280;23859;50.672;7.164;2023-03-19T04:09:12;96523.72;;;12.48;84.98
38054;BME280;23859;50.672;7.164;2023-03-19T04:11:40;96514.00;;;12.37;85.94
38054;BME280;23859;50.672;7.164;2023-03-19T04:14:06;96514.88;;;12.21;87.42
38054;BME280;23859;50.672;7.164;2023-03-19T04:16:33;96524.69;;;12.21;87.60
38054;BME280;23859;50.672;7.164;2023-03-19T04:19:00;96533.84;;;12.08;89.04
38054;BME280;23859;50.672;7.164;2023-03-19T04:21:27;96541.72;;;11.98;89.46
38054;BME280;23859;50.672;7.164;2023-03-19T04:23:54;96536.97;;;11.84;90.61
38054;BME280;23859;50.672;7.164;2023-03-19T04:26:20;96534.97;;;11.75;91.02
38054;BME280;23859;50.672;7.164;2023-03-19T04:28:46;96533.94;;;11.76;91.39
38054;BME280;23859;50.672;7.164;2023-03-19T04:31:12;96537.69;;;11.80;89.55
38054;BME280;23859;50.672;7.164;2023-03-19T04:33:38;96538.09;;;11.88;90.00
38054;BME280;23859;50.672;7.164;2023-03-19T04:36:05;96535.63;;;11.82;91.36
38054;BME280;23859;50.672;7.164;2023-03-19T04:38:31;96531.84;;;11.78;91.32
38054;BME280;23859;50.672;7.164;2023-03-19T04:40:58;96529.84;;;11.68;92.80
38054;BME280;23859;50.672;7.164;2023-03-19T04:43:24;96536.94;;;11.63;92.65
38054;BME280;23859;50.672;7.164;2023-03-19T04:45:51;96535.78;;;11.59;93.99
38054;BME280;23859;50.672;7.164;2023-03-19T04:48:17;96539.44;;;11.53;92.26
38054;BME280;23859;50.672;7.164;2023-03-19T04:50:44;96541.63;;;11.56;91.79
38054;BME280;23859;50.672;7.164;2023-03-19T04:53:12;96540.56;;;11.57;91.49
38054;BME280;23859;50.672;7.164;2023-03-19T04:55:38;96538.78;;;11.62;91.57
38054;BME280;23859;50.672;7.164;2023-03-19T04:58:04;96541.69;;;11.61;91.34
38054;BME280;23859;50.672;7.164;2023-03-19T05:00:30;96547.19;;;11.54;92.03
38054;BME280;23859;50.672;7.164;2023-03-19T05:02:57;96554.41;;;11.59;92.29
38054;BME280;23859;50.672;7.164;2023-03-19T05:05:23;96550.88;;;11.53;93.84
38054;BME280;23859;50.672;7.164;2023-03-19T05:07:49;96557.50;;;11.51;93.92
38054;BME280;23859;50.672;7.164;2023-03-19T05:10:15;96549.06;;;11.42;93.17
38054;BME280;23859;50.672;7.164;2023-03-19T05:12:41;96552.00;;;11.41;94.15
38054;BME280;23859;50.672;7.164;2023-03-19T05:15:08;96552.97;;;11.51;93.66
38054;BME280;23859;50.672;7.164;2023-03-19T05:17:34;96559.66;;;11.54;94.24
38054;BME280;23859;50.672;7.164;2023-03-19T05:20:01;96552.44;;;11.38;95.26
38054;BME280;23859;50.672;7.164;2023-03-19T05:22:29;96554.22;;;11.49;93.16
38054;BME280;23859;50.672;7.164;2023-03-19T05:24:55;96559.53;;;11.49;93.30
38054;BME280;23859;50.672;7.164;2023-03-19T05:27:22;96553.28;;;11.55;91.60
38054;BME280;23859;50.672;7.164;2023-03-19T05:29:48;96555.06;;;11.66;91.26
38054;BME280;23859;50.672;7.164;2023-03-19T05:32:14;96565.06;;;11.75;91.17
38054;BME280;23859;50.672;7.164;2023-03-19T05:34:40;96564.16;;;11.70;91.54
38054;BME280;23859;50.672;7.164;2023-03-19T05:37:07;96567.06;;;11.85;89.75
38054;BME280;23859;50.672;7.164;2023-03-19T05:39:34;96593.75;;;11.90;90.33
38054;BME280;23859;50.672;7.164;2023-03-19T05:42:00;96577.13;;;11.83;92.54
38054;BME280;23859;50.672;7.164;2023-03-19T05:44:26;96578.88;;;11.94;90.07
38054;BME280;23859;50.672;7.164;2023-03-19T05:46:52;96569.63;;;11.96;89.88
38054;BME280;23859;50.672;7.164;2023-03-19T05:49:18;96564.22;;;11.91;91.83
38054;BME280;23859;50.672;7.164;2023-03-19T05:51:44;96474.75;;;11.31;91.56
38054;BME280;23859;50.672;7.164;2023-03-19T05:54:10;96563.09;;;11.87;91.38
38054;BME280;23859;50.672;7.164;2023-03-19T05:56:36;96568.72;;;11.91;90.60
38054;BME280;23859;50.672;7.164;2023-03-19T05:59:02;96568.00;;;11.95;89.39
38054;BME280;23859;50.672;7.164;2023-03-19T06:01:28;96571.44;;;12.12;88.16
38054;BME280;23859;50.672;7.164;2023-03-19T06:03:54;96579.81;;;12.20;87.98
38054;BME280;23859;50.672;7.164;2023-03-19T06:06:20;96579.81;;;12.20;87.53
38054;BME280;23859;50.672;7.164;2023-03-19T06:08:48;96587.91;;;12.30;87.75
38054;BME280;23859;50.672;7.164;2023-03-19T06:11:15;96590.25;;;12.27;88.04
38054;BME280;23859;50.672;7.164;2023-03-19T06:13:41;96587.28;;;12.23;88.21
38054;BME280;23859;50.672;7.164;2023-03-19T06:16:08;96587.84;;;12.25;88.23
38054;BME280;23859;50.672;7.164;2023-03-19T06:18:34;96575.22;;;12.16;88.08
38054;BME280;23859;50.672;7.164;2023-03-19T06:21:01;96587.34;;;12.28;88.47
38054;BME280;23859;50.672;7.164;2023-03-19T06:23:27;96595.28;;;12.23;90.38
38054;BME280;23859;50.672;7.164;2023-03-19T06:25:53;96599.44;;;12.36;89.07
38054;BME280;23859;50.672;7.164;2023-03-19T06:28:19;96602.66;;;12.38;88.81
38054;BME280;23859;50.672;7.164;2023-03-19T06:30:45;96598.16;;;12.38;87.85
38054;BME280;23859;50.672;7.164;2023-03-19T06:33:11;96597.34;;;12.38;88.43
38054;BME280;23859;50.672;7.164;2023-03-19T06:35:39;96581.63;;;12.36;86.23
38054;BME280;23859;50.672;7.164;2023-03-19T06:38:05;96599.06;;;12.49;87.18
38054;BME280;23859;50.672;7.164;2023-03-19T06:40:32;96598.94;;;12.60;86.66
38054;BME280;23859;50.672;7.164;2023-03-19T06:42:59;96620.34;;;12.65;87.23
38054;BME280;23859;50.672;7.164;2023-03-19T06:45:25;96608.06;;;12.64;86.50
38054;BME280;23859;50.672;7.164;2023-03-19T06:47:51;96610.78;;;12.69;86.06
38054;BME280;23859;50.672;7.164;2023-03-19T06:50:17;96609.88;;;12.80;86.17
38054;BME280;23859;50.672;7.164;2023-03-19T06:52:43;96620.41;;;12.91;86.10
38054;BME280;23859;50.672;7.164;2023-03-19T06:55:10;96624.00;;;13.02;85.64
38054;BME280;23859;50.672;7.164;2023-03-19T06:57:37;96619.09;;;12.94;87.85
38054;BME280;23859;50.672;7.164;2023-03-19T07:00:05;96620.47;;;12.96;86.02
38054;BME280;23859;50.672;7.164;2023-03-19T07:02:32;96626.63;;;12.97;87.42
38054;BME280;23859;50.672;7.164;2023-03-19T07:04:58;96628.09;;;13.09;85.34
38054;BME280;23859;50.672;7.164;2023-03-19T07:07:24;96640.47;;;13.20;85.51
38054;BME280;23859;50.672;7.164;2023-03-19T07:09:50;96647.75;;;13.29;83.91
38054;BME280;23859;50.672;7.164;2023-03-19T07:12:16;96650.66;;;13.28;86.13
38054;BME280;23859;50.672;7.164;2023-03-19T07:14:42;96653.84;;;13.25;86.11
38054;BME280;23859;50.672;7.164;2023-03-19T07:17:09;96656.88;;;13.33;85.05
38054;BME280;23859;50.672;7.164;2023-03-19T07:19:35;96661.44;;;13.64;83.71
38054;BME280;23859;50.672;7.164;2023-03-19T07:22:01;96667.44;;;13.76;82.27
38054;BME280;23859;50.672;7.164;2023-03-19T07:24:27;96658.38;;;13.77;80.97
38054;BME280;23859;50.672;7.164;2023-03-19T07:26:53;96683.63;;;13.96;81.13
38054;BME280;23859;50.672;7.164;2023-03-19T07:29:19;96614.72;;;13.62;81.35
38054;BME280;23859;50.672;7.164;2023-03-19T07:31:45;96675.91;;;13.99;81.34
38054;BME280;23859;50.672;7.164;2023-03-19T07:34:11;96679.34;;;13.95;82.35
38054;BME280;23859;50.672;7.164;2023-03-19T07:36:37;96677.53;;;14.00;80.30
38054;BME280;23859;50.672;7.164;2023-03-19T07:39:03;96683.31;;;13.61;83.33
38054;BME280;23859;50.672;7.164;2023-03-19T07:41:29;96663.41;;;13.47;85.26
38054;BME280;23859;50.672;7.164;2023-03-19T07:43:56;96675.13;;;13.46;86.22
38054;BME280;23859;50.672;7.164;2023-03-19T07:46:22;96659.56;;;13.12;88.21
38054;BME280;23859;50.672;7.164;2023-03-19T07:48:48;96664.09;;;12.90;90.36
38054;BME280;23859;50.672;7.164;2023-03-19T07:51:14;96658.28;;;12.77;92.06
38054;BME280;23859;50.672;7.164;2023-03-19T07:53:40;96661.03;;;12.82;91.88
38054;BME280;23859;50.672;7.164;2023-03-19T07:56:06;96666.59;;;12.80;91.26
38054;BME280;23859;50.672;7.164;2023-03-19T07:58:32;96648.69;;;12.92;89.85
38054;BME280;23859;50.672;7.164;2023-03-19T08:00:58;96663.47;;;13.05;89.33
38054;BME280;23859;50.672;7.164;2023-03-19T08:03:24;96669.84;;;13.04;89.32
38054;BME280;23859;50.672;7.164;2023-03-19T08:05:51;96671.09;;;12.96;90.41
38054;BME280;23859;50.672;7.164;2023-03-19T08:08:17;96661.69;;;13.10;89.38
38054;BME280;23859;50.672;7.164;2023-03-19T08:10:44;96659.75;;;13.06;89.43
38054;BME280;23859;50.672;7.164;2023-03-19T08:13:10;96664.09;;;13.12;90.20
38054;BME280;23859;50.672;7.164;2023-03-19T08:15:36;96665.09;;;13.06;90.36
38054;BME280;23859;50.672;7.164;2023-03-19T08:18:03;96660.38;;;13.13;90.99
38054;BME280;23859;50.672;7.164;2023-03-19T08:20:30;96661.13;;;13.08;90.98
38054;BME280;23859;50.672;7.164;2023-03-19T08:22:56;96661.19;;;13.13;89.82
38054;BME280;23859;50.672;7.164;2023-03-19T08:25:23;96672.63;;;13.14;90.35
38054;BME280;23859;50.672;7.164;2023-03-19T08:27:49;96675.66;;;13.22;91.84
38054;BME280;23859;50.672;7.164;2023-03-19T08:30:16;96673.81;;;13.23;91.37
38054;BME280;23859;50.672;7.164;2023-03-19T08:32:42;96684.50;;;13.23;90.27
38054;BME280;23859;50.672;7.164;2023-03-19T08:35:11;96682.94;;;13.27;91.57
38054;BME280;23859;50.672;7.164;2023-03-19T08:37:37;96685.91;;;13.09;95.02
38054;BME280;23859;50.672;7.164;2023-03-19T08:40:05;96690.00;;;12.95;95.62
38054;BME280;23859;50.672;7.164;2023-03-19T08:42:32;96689.28;;;12.83;96.87
38054;BME280;23859;50.672;7.164;2023-03-19T08:44:58;96689.72;;;12.75;99.33
38054;BME280;23859;50.672;7.164;2023-03-19T08:47:24;96697.66;;;12.70;100.00
38054;BME280;23859;50.672;7.164;2023-03-19T08:49:51;96703.28;;;12.73;100.00
38054;BME280;23859;50.672;7.164;2023-03-19T08:52:18;96704.38;;;12.56;100.00
38054;BME280;23859;50.672;7.164;2023-03-19T08:54:44;96703.50;;;12.51;100.00
38054;BME280;23859;50.672;7.164;2023-03-19T08:57:10;96699.97;;;12.29;100.00
38054;BME280;23859;50.672;7.164;2023-03-19T08:59:37;96695.72;;;12.11;100.00
38054;BME280;23859;50.672;7.164;2023-03-19T09:02:03;96699.34;;;12.05;100.00
38054;BME280;23859;50.672;7.164;2023-03-19T09:04:29;96705.88;;;12.14;100.00
38054;BME280;23859;50.672;7.164;2023-03-19T09:06:55;96709.97;;;12.22;100.00
38054;BME280;23859;50.672;7.164;2023-03-19T09:09:23;96717.31;;;12.31;100.00
38054;BME280;23859;50.672;7.164;2023-03-19T09:11:49;96718.50;;;12.40;100.00
38054;BME280;23859;50.672;7.164;2023-03-19T09:14:15;96714.22;;;12.39;100.00
38054;BME280;23859;50.672;7.164;2023-03-19T09:16:43;96715.91;;;12.62;100.00
38054;BME280;23859;50.672;7.164;2023-03-19T09:19:09;96731.28;;;12.76;100.00
38054;BME280;23859;50.672;7.164;2023-03-19T09:21:36;96720.06;;;12.90;100.00
38054;BME280;23859;50.672;7.164;2023-03-19T09:24:02;96718.06;;;12.81;100.00
38054;BME280;23859;50.672;7.164;2023-03-19T09:26:29;96718.16;;;12.69;100.00
38054;BME280;23859;50.672;7.164;2023-03-19T09:28:55;96722.25;;;12.93;100.00
38054;BME280;23859;50.672;7.164;2023-03-19T09:31:22;96739.22;;;13.09;100.00
38054;BME280;23859;50.672;7.164;2023-03-19T09:33:48;96726.59;;;12.99;100.00
38054;BME280;23859;50.672;7.164;2023-03-19T09:36:14;96574.22;;;12.00;100.00
38054;BME280;23859;50.672;7.164;2023-03-19T09:38:40;96734.81;;;12.98;100.00
38054;BME280;23859;50.672;7.164;2023-03-19T09:41:15;96743.03;;;13.13;100.00
38054;BME280;23859;50.672;7.164;2023-03-19T09:46:40;96740.28;;;13.50;97.02
38054;BME280;23859;50.672;7.164;2023-03-19T09:52:10;96750.63;;;13.47;97.73
38054;BME280;23859;50.672;7.164;2023-03-19T09:54:45;96763.03;;;13.58;98.03
38054;BME280;23859;50.672;7.164;2023-03-19T09:57:13;96748.41;;;13.60;97.92
38054;BME280;23859;50.672;7.164;2023-03-19T09:59:40;96742.94;;;13.77;97.42
38054;BME280;23859;50.672;7.164;2023-03-19T10:02:30;96747.63;;;13.91;97.60
38054;BME280;23859;50.672;7.164;2023-03-19T10:05:10;96740.81;;;14.05;95.54
38054;BME280;23859;50.672;7.164;2023-03-19T10:08:16;96756.47;;;14.18;95.64
38054;BME280;23859;50.672;7.164;2023-03-19T10:16:27;96755.44;;;14.24;95.27
38054;BME280;23859;50.672;7.164;2023-03-19T10:19:00;96764.31;;;14.65;91.66
38054;BME280;23859;50.672;7.164;2023-03-19T10:21:37;96767.78;;;15.07;92.37
38054;BME280;23859;50.672;7.164;2023-03-19T10:26:37;96773.91;;;15.44;87.02
38054;BME280;23859;50.672;7.164;2023-03-19T10:34:32;96774.06;;;15.94;81.62
38054;BME280;23859;50.672;7.164;2023-03-19T10:39:27;96769.53;;;15.28;85.36
38054;BME280;23859;50.672;7.164;2023-03-19T10:47:47;96765.44;;;15.72;84.14
38054;BME280;23859;50.672;7.164;2023-03-19T10:50:36;96767.53;;;15.65;83.75
38054;BME280;23859;50.672;7.164;2023-03-19T10:53:36;96779.44;;;15.94;83.46
38054;BME280;23859;50.672;7.164;2023-03-19T10:56:21;96780.00;;;16.05;81.99
38054;BME280;23859;50.672;7.164;2023-03-19T10:59:05;96771.38;;;15.84;82.54
38054;BME280;23859;50.672;7.164;2023-03-19T11:01:38;96775.19;;;15.36;84.91
38054;BME280;23859;50.672;7.164;2023-03-19T11:04:21;96768.50;;;15.34;86.52
38054;BME280;23859;50.672;7.164;2023-03-19T11:06:49;96772.19;;;15.23;85.95
38054;BME280;23859;50.672;7.164;2023-03-19T11:09:32;96767.34;;;15.20;86.08
38054;BME280;23859;50.672;7.164;2023-03-19T11:12:20;96765.88;;;15.49;84.89
38054;BME280;23859;50.672;7.164;2023-03-19T11:14:50;96772.38;;;15.63;84.36
38054;BME280;23859;50.672;7.164;2023-03-19T11:17:25;96777.31;;;16.00;81.94
38054;BME280;23859;50.672;7.164;2023-03-19T11:19:55;96778.94;;;16.06;81.84
38054;BME280;23859;50.672;7.164;2023-03-19T11:22:32;96777.91;;;16.52;79.18
38054;BME280;23859;50.672;7.164;2023-03-19T11:25:12;96778.72;;;16.33;79.38
38054;BME280;23859;50.672;7.164;2023-03-19T11:27:39;96779.25;;;16.55;79.24
38054;BME280;23859;50.672;7.164;2023-03-19T11:30:17;96771.22;;;16.35;78.42
38054;BME280;23859;50.672;7.164;2023-03-19T11:33:24;96774.41;;;16.27;78.86
38054;BME280;23859;50.672;7.164;2023-03-19T11:36:00;96684.81;;;15.48;79.40
38054;BME280;23859;50.672;7.164;2023-03-19T11:38:34;96770.59;;;15.98;80.70
38054;BME280;23859;50.672;7.164;2023-03-19T11:41:16;96759.13;;;15.32;86.41
38054;BME280;23859;50.672;7.164;2023-03-19T11:43:52;96752.03;;;14.64;94.10
38054;BME280;23859;50.672;7.164;2023-03-19T11:46:35;96750.34;;;14.54;96.18
38054;BME280;23859;50.672;7.164;2023-03-19T11:49:32;96748.13;;;14.41;97.11
38054;BME280;23859;50.672;7.164;2023-03-19T11:52:26;96737.09;;;14.06;95.75
38054;BME280;23859;50.672;7.164;2023-03-19T11:55:24;96735.69;;;13.98;98.11
38054;BME280;23859;50.672;7.164;2023-03-19T12:01:14;96740.72;;;13.95;96.82
38054;BME280;23859;50.672;7.164;2023-03-19T12:04:05;96732.59;;;13.80;99.61
38054;BME280;23859;50.672;7.164;2023-03-19T12:09:37;96727.16;;;13.70;100.00
38054;BME280;23859;50.672;7.164;2023-03-19T12:12:20;96729.66;;;13.82;100.00
38054;BME280;23859;50.672;7.164;2023-03-19T12:15:49;96738.38;;;13.98;100.00
38054;BME280;23859;50.672;7.164;2023-03-19T12:28:41;96769.56;;;16.24;100.00
38054;BME280;23859;50.672;7.164;2023-03-19T12:36:53;96770.94;;;16.31;97.81
38054;BME280;23859;50.672;7.164;2023-03-19T12:39:25;96761.22;;;15.96;94.57
38054;BME280;23859;50.672;7.164;2023-03-19T12:41:54;96771.34;;;15.69;87.05
38054;BME280;23859;50.672;7.164;2023-03-19T12:44:28;96753.06;;;15.51;88.63
38054;BME280;23859;50.672;7.164;2023-03-19T12:47:01;96755.69;;;15.36;87.72
38054;BME280;23859;50.672;7.164;2023-03-19T12:52:43;96747.91;;;15.30;89.95
38054;BME280;23859;50.672;7.164;2023-03-19T12:55:20;96752.25;;;15.45;89.41
38054;BME280;23859;50.672;7.164;2023-03-19T12:58:08;96746.28;;;15.29;90.49
38054;BME280;23859;50.672;7.164;2023-03-19T13:03:30;96743.22;;;15.10;91.10
38054;BME280;23859;50.672;7.164;2023-03-19T13:06:09;96745.78;;;14.90;91.87
38054;BME280;23859;50.672;7.164;2023-03-19T13:12:05;96737.28;;;15.03;91.82
38054;BME280;23859;50.672;7.164;2023-03-19T13:14:44;96743.31;;;15.25;92.12
38054;BME280;23859;50.672;7.164;2023-03-19T13:17:22;96740.91;;;15.24;89.78
38054;BME280;23859;50.672;7.164;2023-03-19T13:19:51;96746.63;;;15.47;88.65
38054;BME280;23859;50.672;7.164;2023-03-19T13:22:33;96745.53;;;15.43;89.40
38054;BME280;23859;50.672;7.164;2023-03-19T13:25:03;96744.59;;;15.84;87.42
38054;BME280;23859;50.672;7.164;2023-03-19T13:27:32;96743.28;;;15.96;86.24
38054;BME280;23859;50.672;7.164;2023-03-19T13:32:47;96741.41;;;16.01;86.27
38054;BME280;23859;50.672;7.164;2023-03-19T13:40:55;96744.09;;;16.01;83.83
38054;BME280;23859;50.672;7.164;2023-03-19T13:48:37;96755.09;;;16.10;85.21
38054;BME280;23859;50.672;7.164;2023-03-19T13:51:05;96749.47;;;16.01;85.72
38054;BME280;23859;50.672;7.164;2023-03-19T13:54:11;96751.13;;;16.42;84.68
38054;BME280;23859;50.672;7.164;2023-03-19T13:59:27;96794.19;;;18.84;70.84
38054;BME280;23859;50.672;7.164;2023-03-19T14:01:55;96808.75;;;19.87;65.69
38054;BME280;23859;50.672;7.164;2023-03-19T14:04:23;96819.44;;;20.70;62.57
38054;BME280;23859;50.672;7.164;2023-03-19T14:09:42;96849.94;;;22.73;51.83
38054;BME280;23859;50.672;7.164;2023-03-19T14:15:00;96844.75;;;22.50;49.80
38054;BME280;23859;50.672;7.164;2023-03-19T14:17:38;96821.38;;;21.20;51.38
38054;BME280;23859;50.672;7.164;2023-03-19T14:25:27;96837.16;;;22.11;49.05
38054;BME280;23859;50.672;7.164;2023-03-19T14:27:59;96835.44;;;22.77;47.91
38054;BME280;23859;50.672;7.164;2023-03-19T14:30:46;96813.47;;;21.23;52.24
38054;BME280;23859;50.672;7.164;2023-03-19T14:36:04;96808.75;;;21.29;52.58
38054;BME280;23859;50.672;7.164;2023-03-19T14:38:42;96797.28;;;20.91;51.41
38054;BME280;23859;50.672;7.164;2023-03-19T14:41:16;96784.16;;;20.48;49.61
38054;BME280;23859;50.672;7.164;2023-03-19T14:55:01;96834.72;;;23.51;44.13
38054;BME280;23859;50.672;7.164;2023-03-19T14:57:32;96818.13;;;22.30;45.33